createdAt,value
2023-07-24T00:00:21.740Z,6.90
2023-07-24T00:03:16.779Z,6.70
2023-07-24T00:05:51.088Z,6.70
2023-07-24T00:08:25.402Z,6.70
2023-07-24T00:11:00.140Z,6.20
2023-07-24T00:13:34.919Z,7.00
2023-07-24T00:16:14.981Z,6.70
2023-07-24T00:18:49.548Z,7.30
2023-07-24T00:21:23.663Z,7.10
2023-07-24T00:24:00.390Z,6.20
2023-07-24T00:26:34.190Z,6.20
2023-07-24T00:29:08.973Z,6.70
2023-07-24T00:31:43.001Z,7.50
2023-07-24T00:34:17.114Z,6.30
2023-07-24T00:36:54.133Z,6.20
2023-07-24T00:39:30.767Z,6.50
2023-07-24T00:42:06.012Z,6.50
2023-07-24T00:44:40.278Z,6.40
2023-07-24T00:47:15.208Z,6.30
2023-07-24T00:49:49.779Z,6.70
2023-07-24T00:52:24.297Z,6.30
2023-07-24T00:54:59.105Z,6.70
2023-07-24T00:57:33.579Z,6.70
2023-07-24T01:00:09.657Z,6.40
2023-07-24T01:02:44.032Z,7.00
2023-07-24T01:05:18.887Z,7.70
2023-07-24T01:07:53.616Z,6.70
2023-07-24T01:10:27.790Z,7.10
2023-07-24T01:13:10.011Z,6.90
2023-07-24T01:15:51.288Z,6.60
2023-07-24T01:18:28.678Z,7.00
2023-07-24T01:21:06.120Z,7.60
2023-07-24T01:24:01.213Z,7.00
2023-07-24T01:26:36.205Z,6.80
2023-07-24T01:29:10.733Z,6.50
2023-07-24T01:31:45.102Z,7.40
2023-07-24T01:34:19.262Z,7.20
2023-07-24T01:36:54.397Z,7.20
2023-07-24T01:39:28.872Z,7.80
2023-07-24T01:42:06.574Z,6.70
2023-07-24T01:44:40.907Z,6.90
2023-07-24T01:47:15.276Z,6.50
2023-07-24T01:49:49.617Z,7.70
2023-07-24T01:52:23.875Z,6.30
2023-07-24T01:54:58.611Z,7.00
2023-07-24T01:57:32.696Z,7.70
2023-07-24T02:00:08.412Z,6.40
2023-07-24T02:02:42.625Z,6.70
2023-07-24T02:05:16.827Z,6.60
2023-07-24T02:07:51.204Z,7.20
2023-07-24T02:10:25.875Z,5.90
2023-07-24T02:13:00.354Z,6.10
2023-07-24T02:15:34.878Z,6.20
2023-07-24T02:18:09.760Z,7.00
2023-07-24T02:20:43.870Z,7.10
2023-07-24T02:23:18.507Z,6.40
2023-07-24T02:25:56.197Z,6.00
2023-07-24T02:28:30.163Z,6.60
2023-07-24T02:31:05.040Z,6.40
2023-07-24T02:33:39.438Z,6.60
2023-07-24T02:36:15.106Z,6.60
2023-07-24T02:38:48.874Z,6.20
2023-07-24T02:41:24.208Z,5.90
2023-07-24T02:43:57.824Z,6.30
2023-07-24T02:46:32.627Z,6.30
2023-07-24T02:49:07.087Z,6.00
2023-07-24T02:51:41.895Z,5.80
2023-07-24T02:54:15.763Z,6.10
2023-07-24T02:56:50.025Z,6.10
2023-07-24T02:59:23.979Z,5.80
2023-07-24T03:01:57.798Z,6.50
2023-07-24T03:04:32.304Z,5.30
2023-07-24T03:07:07.879Z,6.00
2023-07-24T03:09:41.640Z,5.50
2023-07-24T03:12:15.404Z,5.90
2023-07-24T03:14:49.599Z,6.20
2023-07-24T03:17:24.497Z,5.90
2023-07-24T03:19:59.464Z,5.70
2023-07-24T03:22:33.736Z,5.20
2023-07-24T03:25:10.408Z,5.90
2023-07-24T03:27:45.191Z,5.70
2023-07-24T03:30:19.520Z,6.00
2023-07-24T03:32:53.683Z,5.90
2023-07-24T03:35:28.573Z,5.60
2023-07-24T03:38:02.802Z,6.40
2023-07-24T03:40:36.905Z,6.00
2023-07-24T03:43:11.321Z,5.50
2023-07-24T03:45:45.989Z,6.10
2023-07-24T03:48:20.539Z,6.20
2023-07-24T03:51:01.952Z,6.40
2023-07-24T03:53:35.984Z,5.40
2023-07-24T03:56:12.074Z,5.60
2023-07-24T03:58:46.190Z,5.80
2023-07-24T04:01:20.490Z,5.70
2023-07-24T04:03:54.969Z,5.60
2023-07-24T04:06:29.781Z,5.80
2023-07-24T04:09:05.551Z,5.80
2023-07-24T04:11:40.808Z,5.80
2023-07-24T04:14:14.525Z,5.60
2023-07-24T04:16:48.433Z,5.30
2023-07-24T04:19:22.503Z,9.60
2023-07-24T04:21:56.409Z,5.60
2023-07-24T04:24:32.159Z,5.50
2023-07-24T04:27:07.035Z,5.70
2023-07-24T04:29:40.804Z,5.60
2023-07-24T04:32:16.491Z,6.20
2023-07-24T04:34:50.293Z,6.20
2023-07-24T04:37:24.378Z,6.00
2023-07-24T04:39:58.487Z,6.20
2023-07-24T04:42:32.591Z,5.60
2023-07-24T04:45:07.738Z,5.20
2023-07-24T04:47:41.811Z,5.00
2023-07-24T04:50:15.963Z,6.00
2023-07-24T04:52:49.833Z,5.80
2023-07-24T04:55:29.730Z,5.50
2023-07-24T04:58:03.759Z,5.80
2023-07-24T05:00:38.158Z,6.00
2023-07-24T05:03:13.764Z,5.50
2023-07-24T05:05:50.076Z,5.30
2023-07-24T05:08:25.100Z,5.20
2023-07-24T05:11:02.565Z,5.40
2023-07-24T05:13:36.713Z,5.80
2023-07-24T05:16:14.434Z,5.30
2023-07-24T05:18:48.384Z,5.50
2023-07-24T05:21:22.441Z,6.30
2023-07-24T05:23:56.142Z,5.20
2023-07-24T05:26:30.289Z,5.90
2023-07-24T05:29:06.667Z,5.90
2023-07-24T05:31:41.241Z,5.30
2023-07-24T05:34:15.997Z,5.40
2023-07-24T05:36:50.050Z,5.20
2023-07-24T05:39:24.026Z,5.40
2023-07-24T05:41:57.818Z,6.70
2023-07-24T05:44:37.020Z,5.40
2023-07-24T05:47:11.473Z,5.10
2023-07-24T05:49:45.201Z,5.30
2023-07-24T05:52:19.705Z,5.20
2023-07-24T05:54:53.539Z,5.00
2023-07-24T05:57:27.633Z,6.00
2023-07-24T06:00:01.723Z,5.10
2023-07-24T06:02:36.582Z,5.80
2023-07-24T06:05:11.617Z,5.90
2023-07-24T06:07:48.200Z,5.50
2023-07-24T06:10:21.828Z,5.80
2023-07-24T06:12:55.640Z,5.00
2023-07-24T06:15:29.856Z,5.30
2023-07-24T06:18:03.842Z,4.70
2023-07-24T06:20:38.105Z,5.30
2023-07-24T06:23:11.638Z,5.40
2023-07-24T06:25:45.022Z,5.40
2023-07-24T06:28:18.703Z,5.30
2023-07-24T06:30:52.362Z,4.90
2023-07-24T06:33:25.979Z,4.70
2023-07-24T06:35:59.781Z,5.50
2023-07-24T06:38:33.503Z,4.90
2023-07-24T06:41:07.049Z,5.20
2023-07-24T06:43:41.074Z,5.00
2023-07-24T06:46:14.836Z,5.40
2023-07-24T06:48:48.873Z,6.20
2023-07-24T06:51:22.295Z,6.00
2023-07-24T06:53:55.981Z,5.20
2023-07-24T06:56:29.677Z,6.30
2023-07-24T06:59:04.051Z,6.50
2023-07-24T07:01:37.662Z,6.70
2023-07-24T07:04:11.927Z,7.80
2023-07-24T07:06:45.779Z,6.50
2023-07-24T07:09:20.920Z,7.00
2023-07-24T07:11:55.344Z,6.60
2023-07-24T07:14:30.378Z,5.60
2023-07-24T07:17:04.742Z,5.90
2023-07-24T07:19:41.454Z,5.50
2023-07-24T07:22:16.052Z,5.30
2023-07-24T07:24:50.309Z,6.30
2023-07-24T07:27:24.914Z,6.10
2023-07-24T07:30:02.388Z,6.70
2023-07-24T07:32:41.070Z,6.30
2023-07-24T07:35:17.013Z,7.80
2023-07-24T07:37:51.742Z,6.10
2023-07-24T07:40:28.121Z,6.00
2023-07-24T07:43:02.696Z,6.40
2023-07-24T07:45:39.313Z,5.30
2023-07-24T07:48:13.012Z,4.80
2023-07-24T07:50:46.766Z,5.30
2023-07-24T07:53:20.485Z,5.50
2023-07-24T07:56:02.926Z,5.40
2023-07-24T07:58:36.482Z,5.40
2023-07-24T08:01:11.187Z,4.60
2023-07-24T08:03:45.079Z,4.80
2023-07-24T08:06:19.183Z,5.10
2023-07-24T08:08:53.108Z,4.50
2023-07-24T08:11:26.856Z,6.20
2023-07-24T08:14:00.814Z,4.70
2023-07-24T08:16:35.584Z,5.60
2023-07-24T08:19:10.166Z,5.20
2023-07-24T08:21:43.787Z,5.80
2023-07-24T08:24:18.046Z,5.20
2023-07-24T08:26:52.303Z,5.20
2023-07-24T08:29:26.624Z,5.70
2023-07-24T08:32:01.155Z,5.30
2023-07-24T08:34:35.606Z,5.30
2023-07-24T08:37:10.719Z,5.90
2023-07-24T08:39:44.674Z,5.30
2023-07-24T08:42:22.111Z,5.70
2023-07-24T08:44:57.216Z,5.00
2023-07-24T08:47:33.985Z,4.80
2023-07-24T08:50:11.071Z,5.40
2023-07-24T08:52:47.840Z,6.70
2023-07-24T08:55:24.099Z,5.30
2023-07-24T08:57:59.990Z,5.20
2023-07-24T09:00:35.856Z,5.70
2023-07-24T09:03:10.605Z,5.90
2023-07-24T09:05:44.854Z,6.90
2023-07-24T09:08:19.146Z,4.90
2023-07-24T09:10:57.256Z,6.80
2023-07-24T09:13:31.780Z,5.50
2023-07-24T09:16:06.653Z,5.20
2023-07-24T09:18:47.722Z,6.30
2023-07-24T09:21:35.204Z,5.20
2023-07-24T09:24:17.608Z,5.30
2023-07-24T09:26:58.842Z,5.40
2023-07-24T09:29:37.974Z,4.70
2023-07-24T09:32:23.116Z,5.20
2023-07-24T09:34:57.466Z,5.00
2023-07-24T09:37:35.703Z,4.70
2023-07-24T09:40:14.091Z,5.50
2023-07-24T09:43:14.007Z,4.60
2023-07-24T09:45:45.952Z,4.80
2023-07-24T09:51:01.628Z,5.20
2023-07-24T09:53:45.810Z,4.80
2023-07-24T09:56:26.064Z,4.90
2023-07-24T09:59:08.147Z,4.50
2023-07-24T10:01:44.190Z,5.00
2023-07-24T10:04:20.681Z,4.50
2023-07-24T10:06:55.524Z,4.90
2023-07-24T10:09:30.912Z,4.90
2023-07-24T10:12:06.782Z,4.80
2023-07-24T10:14:41.386Z,4.50
2023-07-24T10:17:15.886Z,4.50
2023-07-24T10:19:50.665Z,4.30
2023-07-24T10:22:26.975Z,4.70
2023-07-24T10:25:01.763Z,6.20
2023-07-24T10:27:37.915Z,4.60
2023-07-24T10:30:32.163Z,5.50
2023-07-24T10:33:14.887Z,5.10
2023-07-24T10:35:52.169Z,5.50
2023-07-24T10:38:40.126Z,5.80
2023-07-24T10:41:15.833Z,4.60
2023-07-24T10:43:52.807Z,4.40
2023-07-24T10:46:36.658Z,4.30
2023-07-24T10:49:11.950Z,5.40
2023-07-24T10:51:45.298Z,5.10
2023-07-24T10:54:25.145Z,4.30
2023-07-24T10:57:04.239Z,4.60
2023-07-24T10:59:44.375Z,5.00
2023-07-24T11:02:17.950Z,4.30
2023-07-24T11:04:51.473Z,4.60
2023-07-24T11:07:25.780Z,4.50
2023-07-24T11:09:59.122Z,4.10
2023-07-24T11:12:33.356Z,4.90
2023-07-24T11:15:08.572Z,4.50
2023-07-24T11:17:43.942Z,4.50
2023-07-24T11:20:19.771Z,4.80
2023-07-24T11:22:53.708Z,5.10
2023-07-24T11:25:27.999Z,4.90
2023-07-24T11:28:01.526Z,4.80
2023-07-24T11:30:36.956Z,4.80
2023-07-24T11:33:15.445Z,5.20
2023-07-24T11:35:50.591Z,4.60
2023-07-24T11:38:24.528Z,4.30
2023-07-24T11:40:59.713Z,5.50
2023-07-24T11:43:33.455Z,5.40
2023-07-24T11:46:06.889Z,5.60
2023-07-24T11:48:46.697Z,5.40
2023-07-24T11:51:20.336Z,5.90
2023-07-24T11:53:54.661Z,5.80
2023-07-24T11:56:28.856Z,5.80
2023-07-24T11:59:12.804Z,5.60
2023-07-24T12:01:50.134Z,5.30
2023-07-24T12:04:24.012Z,5.70
2023-07-24T12:06:57.542Z,5.30
2023-07-24T12:12:17.705Z,5.30
2023-07-24T12:14:53.116Z,4.90
2023-07-24T12:17:27.066Z,6.00
2023-07-24T12:20:01.113Z,6.00
2023-07-24T12:22:35.100Z,5.00
2023-07-24T12:25:10.499Z,5.20
2023-07-24T12:27:44.155Z,5.40
2023-07-24T12:30:18.370Z,5.60
2023-07-24T12:32:51.955Z,5.30
2023-07-24T12:35:25.818Z,5.20
2023-07-24T12:38:00.413Z,5.40
2023-07-24T12:40:34.091Z,5.80
2023-07-24T12:43:07.771Z,6.80
2023-07-24T12:45:41.501Z,6.70
2023-07-24T12:48:15.913Z,6.20
2023-07-24T12:50:49.970Z,7.40
2023-07-24T12:53:29.011Z,6.30
2023-07-24T12:56:07.410Z,6.50
2023-07-24T12:58:40.873Z,5.50
2023-07-24T13:01:14.703Z,6.00
2023-07-24T13:03:48.601Z,6.10
2023-07-24T13:06:22.535Z,5.30
2023-07-24T13:08:56.348Z,6.10
2023-07-24T13:11:33.083Z,5.60
2023-07-24T13:14:08.261Z,5.60
2023-07-24T13:16:41.842Z,5.80
2023-07-24T13:19:17.924Z,6.00
2023-07-24T13:21:53.696Z,5.90
2023-07-24T13:24:27.294Z,6.10
2023-07-24T13:27:00.982Z,6.10
2023-07-24T13:29:35.123Z,6.10
2023-07-24T13:32:10.798Z,5.60
2023-07-24T13:34:45.911Z,5.60
2023-07-24T13:37:20.410Z,5.40
2023-07-24T13:39:54.474Z,5.90
2023-07-24T13:42:28.078Z,5.60
2023-07-24T13:45:01.632Z,6.30
2023-07-24T13:47:35.215Z,5.60
2023-07-24T13:50:10.687Z,5.50
2023-07-24T13:52:44.161Z,6.20
2023-07-24T13:55:17.998Z,5.40
2023-07-24T13:57:51.620Z,5.60
2023-07-24T14:00:25.159Z,6.00
2023-07-24T14:02:58.741Z,6.30
2023-07-24T14:05:32.625Z,5.60
2023-07-24T14:08:08.796Z,6.60
2023-07-24T14:10:42.430Z,5.50
2023-07-24T14:13:15.937Z,5.30
2023-07-24T14:15:49.690Z,5.60
2023-07-24T14:18:23.697Z,5.00
2023-07-24T14:20:57.860Z,5.20
2023-07-24T14:23:31.958Z,5.10
2023-07-24T14:26:05.354Z,5.20
2023-07-24T14:28:38.745Z,5.10
2023-07-24T14:31:12.197Z,5.10
2023-07-24T14:33:45.540Z,5.10
2023-07-24T14:36:18.998Z,6.30
2023-07-24T14:38:52.469Z,5.00
2023-07-24T14:41:26.099Z,5.50
2023-07-24T14:44:00.095Z,4.90
2023-07-24T14:46:33.623Z,5.20
2023-07-24T14:49:07.104Z,5.10
2023-07-24T14:51:41.433Z,5.40
2023-07-24T14:54:14.708Z,4.90
2023-07-24T14:56:56.984Z,5.40
2023-07-24T14:59:33.150Z,5.60
2023-07-24T15:02:07.660Z,5.50
2023-07-24T15:04:41.245Z,5.90
2023-07-24T15:07:14.954Z,5.70
2023-07-24T15:09:48.902Z,6.30
2023-07-24T15:12:22.410Z,5.60
2023-07-24T15:14:56.484Z,5.10
2023-07-24T15:17:30.259Z,5.30
2023-07-24T15:20:04.107Z,6.30
2023-07-24T15:22:38.021Z,5.90
2023-07-24T15:25:11.930Z,5.70
2023-07-24T15:27:45.738Z,5.30
2023-07-24T15:30:19.402Z,5.60
2023-07-24T15:32:52.923Z,5.20
2023-07-24T15:35:26.605Z,5.80
2023-07-24T15:38:02.512Z,5.80
2023-07-24T15:40:38.731Z,5.50
2023-07-24T15:43:12.966Z,5.40
2023-07-24T15:45:46.511Z,6.40
2023-07-24T15:48:26.783Z,6.00
2023-07-24T15:51:00.778Z,5.00
2023-07-24T15:53:34.612Z,7.10
2023-07-24T15:56:09.230Z,5.50
2023-07-24T15:58:44.101Z,5.30
2023-07-24T16:01:18.017Z,5.80
2023-07-24T16:03:52.270Z,5.30
2023-07-24T16:06:26.194Z,5.70
2023-07-24T16:09:01.594Z,5.60
2023-07-24T16:11:35.301Z,5.50
2023-07-24T16:14:11.383Z,5.30
2023-07-24T16:16:44.859Z,5.40
2023-07-24T16:19:22.366Z,6.20
2023-07-24T16:21:57.697Z,6.00
2023-07-24T16:24:31.544Z,5.80
2023-07-24T16:27:08.878Z,6.00
2023-07-24T16:29:42.540Z,5.90
2023-07-24T16:32:16.616Z,6.00
2023-07-24T16:34:50.277Z,6.90
2023-07-24T16:37:25.649Z,6.20
2023-07-24T16:39:59.736Z,6.40
2023-07-24T16:42:34.771Z,6.60
2023-07-24T16:48:03.537Z,6.60
2023-07-24T16:50:40.512Z,6.20
2023-07-24T16:53:14.552Z,6.80
2023-07-24T16:55:48.379Z,5.90
2023-07-24T16:58:22.009Z,5.60
2023-07-24T17:00:56.274Z,5.90
2023-07-24T17:03:30.240Z,6.00
2023-07-24T17:06:04.499Z,5.70
2023-07-24T17:08:39.000Z,5.50
2023-07-24T17:11:13.326Z,5.90
2023-07-24T17:13:48.447Z,5.60
2023-07-24T17:16:22.636Z,6.00
2023-07-24T17:18:57.496Z,5.80
2023-07-24T17:21:31.847Z,5.90
2023-07-24T17:24:05.832Z,6.20
2023-07-24T17:26:41.045Z,6.60
2023-07-24T17:29:14.669Z,5.70
2023-07-24T17:31:48.131Z,6.40
2023-07-24T17:34:21.479Z,6.20
2023-07-24T17:36:54.895Z,6.00
2023-07-24T17:39:29.628Z,6.40
2023-07-24T17:42:03.010Z,6.50
2023-07-24T17:44:36.621Z,6.80
2023-07-24T17:47:10.575Z,6.20
2023-07-24T17:49:56.684Z,7.30
2023-07-24T17:52:38.389Z,6.50
2023-07-24T17:55:14.979Z,5.60
2023-07-24T17:57:50.863Z,8.10
2023-07-24T18:00:24.962Z,7.40
2023-07-24T18:02:59.126Z,8.00
2023-07-24T18:05:32.690Z,8.00
2023-07-24T18:08:06.650Z,7.40
2023-07-24T18:10:40.211Z,7.70
2023-07-24T18:13:14.312Z,7.90
2023-07-24T18:15:48.244Z,7.00
2023-07-24T18:18:21.989Z,7.00
2023-07-24T18:20:55.598Z,7.00
2023-07-24T18:23:28.939Z,7.60
2023-07-24T18:26:02.950Z,6.70
2023-07-24T18:28:36.593Z,6.10
2023-07-24T18:31:10.573Z,6.20
2023-07-24T18:33:45.272Z,6.30
2023-07-24T18:36:19.186Z,6.30
2023-07-24T18:38:53.395Z,6.70
2023-07-24T18:41:27.020Z,6.70
2023-07-24T18:44:00.924Z,7.00
2023-07-24T18:46:34.691Z,6.20
2023-07-24T18:49:08.724Z,6.10
2023-07-24T18:51:42.695Z,6.50
2023-07-24T18:54:16.957Z,7.80
2023-07-24T18:56:50.898Z,6.70
2023-07-24T18:59:24.727Z,7.10
2023-07-24T19:01:58.402Z,6.90
2023-07-24T19:04:31.922Z,7.40
2023-07-24T19:07:06.084Z,7.10
2023-07-24T19:09:39.436Z,8.10
2023-07-24T19:12:13.499Z,7.10
2023-07-24T19:14:46.876Z,7.80
2023-07-24T19:17:20.180Z,8.00
2023-07-24T19:19:53.513Z,8.20
2023-07-24T19:22:27.399Z,9.50
2023-07-24T19:25:01.162Z,9.10
2023-07-24T19:27:34.555Z,8.80
2023-07-24T19:30:10.481Z,9.50
2023-07-24T19:32:45.718Z,10.20
2023-07-24T19:35:21.149Z,9.40
2023-07-24T19:37:54.926Z,9.80
2023-07-24T19:40:28.774Z,9.00
2023-07-24T19:43:02.246Z,10.40
2023-07-24T19:45:41.370Z,9.70
2023-07-24T19:48:15.658Z,9.50
2023-07-24T19:50:56.041Z,9.00
2023-07-24T19:53:31.085Z,9.80
2023-07-24T19:56:08.474Z,9.60
2023-07-24T19:58:43.765Z,10.10
2023-07-24T20:01:17.624Z,10.60
2023-07-24T20:03:52.077Z,11.50
2023-07-24T20:06:27.405Z,10.60
2023-07-24T20:09:01.323Z,10.10
2023-07-24T20:11:35.263Z,10.60
2023-07-24T20:14:09.989Z,11.10
2023-07-24T20:16:44.615Z,11.80
2023-07-24T20:19:18.651Z,10.40
2023-07-24T20:21:52.202Z,9.80
2023-07-24T20:24:26.429Z,9.40
2023-07-24T20:26:59.995Z,9.40
2023-07-24T20:29:35.313Z,9.90
2023-07-24T20:32:10.428Z,9.90
2023-07-24T20:34:44.148Z,8.80
2023-07-24T20:37:17.739Z,9.90
2023-07-24T20:39:51.615Z,9.60
2023-07-24T20:42:26.493Z,8.60
2023-07-24T20:45:00.517Z,8.00
2023-07-24T20:47:34.032Z,8.20
2023-07-24T20:50:09.589Z,9.30
2023-07-24T20:52:43.386Z,8.40
2023-07-24T20:55:18.536Z,8.90
2023-07-24T20:57:54.293Z,9.20
2023-07-24T21:00:28.472Z,8.50
2023-07-24T21:03:02.804Z,7.60
2023-07-24T21:05:38.263Z,8.20
2023-07-24T21:08:13.146Z,8.90
2023-07-24T21:10:48.043Z,7.40
2023-07-24T21:13:21.856Z,8.10
2023-07-24T21:15:55.800Z,10.10
2023-07-24T21:18:30.513Z,8.80
2023-07-24T21:21:08.511Z,7.30
2023-07-24T21:23:42.682Z,8.50
2023-07-24T21:26:16.130Z,7.90
2023-07-24T21:28:50.976Z,8.70
2023-07-24T21:31:25.120Z,8.40
2023-07-24T21:33:59.893Z,8.60
2023-07-24T21:36:33.810Z,9.00
2023-07-24T21:39:07.871Z,9.50
2023-07-24T21:41:42.002Z,8.20
2023-07-24T21:44:18.810Z,8.20
2023-07-24T21:46:52.930Z,7.60
2023-07-24T21:49:31.479Z,10.10
2023-07-24T21:52:08.239Z,10.60
2023-07-24T21:54:43.221Z,10.50
2023-07-24T21:57:18.500Z,9.90
2023-07-24T21:59:54.553Z,11.00
2023-07-24T22:02:28.537Z,10.30
2023-07-24T22:05:02.998Z,9.30
2023-07-24T22:07:40.798Z,9.50
2023-07-24T22:10:15.873Z,9.30
2023-07-24T22:12:50.219Z,10.70
2023-07-24T22:15:24.787Z,10.50
2023-07-24T22:18:01.224Z,11.50
2023-07-24T22:20:41.006Z,9.00
2023-07-24T22:23:15.944Z,9.50
2023-07-24T22:25:50.288Z,9.20
2023-07-24T22:28:24.788Z,9.40
2023-07-24T22:30:59.111Z,8.40
2023-07-24T22:33:33.144Z,8.50
2023-07-24T22:36:10.337Z,8.40
2023-07-24T22:38:44.240Z,8.90
2023-07-24T22:41:19.615Z,9.40
2023-07-24T22:43:54.018Z,8.90
2023-07-24T22:46:28.401Z,8.80
2023-07-24T22:49:03.054Z,8.50
2023-07-24T22:51:37.279Z,9.20
2023-07-24T22:54:11.189Z,8.30
2023-07-24T22:56:46.278Z,8.60
2023-07-24T22:59:28.322Z,8.40
2023-07-24T23:02:03.376Z,9.20
2023-07-24T23:04:37.636Z,9.10
2023-07-24T23:07:13.172Z,8.60
2023-07-24T23:09:50.409Z,8.70
2023-07-24T23:12:24.681Z,8.70
2023-07-24T23:14:58.795Z,8.70
2023-07-24T23:17:35.493Z,9.10
2023-07-24T23:20:12.601Z,9.20
2023-07-24T23:22:46.688Z,8.00
2023-07-24T23:25:20.934Z,9.10
2023-07-24T23:27:57.832Z,9.30
2023-07-24T23:30:32.341Z,8.40
2023-07-24T23:33:06.805Z,9.10
2023-07-24T23:35:41.762Z,8.90
2023-07-24T23:38:16.321Z,9.20
2023-07-24T23:41:01.743Z,8.80
2023-07-24T23:43:36.363Z,9.20
2023-07-24T23:46:17.325Z,10.10
2023-07-24T23:48:51.705Z,9.00
2023-07-24T23:51:28.033Z,9.10
2023-07-24T23:54:02.407Z,9.40
2023-07-24T23:56:36.774Z,8.90
2023-07-24T23:59:10.949Z,9.10
